Albert Lea, Minnesota
Current Conditions -  °F | °C
As of 5:33 PM on Saturday 22 Nov 2014 (Local Time) from KAEL Reporting Station
Haze Haze  
Wind Chill: 32°   Ceiling: 300
Heat Index: 39°   Visibility: 2mi
Dew Point: 39°   Wind: 10mph
Humidity: 100%   Direction: 180°S
Pressure: 29.62"   Gusts: NA
Location:  43.65°N, 93.37°W
Report Text: KAEL 222333Z AUTO 18009KT 2SM BR OVC003 04/04 A2962 RMK AO2
Loading
Personal Weather Stations






























Interactive Weather Map New forecast layout! Learn more

10-Day Weather Forecast

Advertisements
Track Severe Weather on mobile